createdAt,value
2024-05-09T00:11:04.345Z,8.44
2024-05-09T00:31:06.221Z,8.24
2024-05-09T00:51:08.098Z,8.23
2024-05-09T01:11:10.107Z,8.04
2024-05-09T01:31:16.368Z,7.69
2024-05-09T01:51:18.132Z,7.15
2024-05-09T02:11:19.865Z,6.65
2024-05-09T02:31:21.598Z,6.14
2024-05-09T02:51:23.238Z,5.79
2024-05-09T03:11:25.803Z,5.63
2024-05-09T03:31:27.810Z,5.26
2024-05-09T03:51:30.812Z,5.04
2024-05-09T04:11:32.820Z,5.09
2024-05-09T04:31:37.923Z,5.34
2024-05-09T04:51:41.074Z,5.93
2024-05-09T05:11:42.929Z,6.68
2024-05-09T05:31:44.944Z,7.66
2024-05-09T05:51:46.654Z,8.68
2024-05-09T06:11:48.522Z,9.70
2024-05-09T06:31:51.038Z,10.79
2024-05-09T06:51:52.716Z,11.88
2024-05-09T07:11:54.407Z,12.79
2024-05-09T07:31:56.569Z,13.68
2024-05-09T07:53:22.109Z,14.76
2024-05-09T08:12:21.604Z,15.17
2024-05-09T08:32:23.505Z,15.94
2024-05-09T08:52:25.264Z,16.87
2024-05-09T09:12:26.986Z,16.76
2024-05-09T09:32:30.275Z,16.34
2024-05-09T09:52:32.285Z,17.04
2024-05-09T10:12:34.249Z,17.99
2024-05-09T10:32:41.008Z,18.50
2024-05-09T10:52:42.749Z,17.93
2024-05-09T11:12:46.160Z,19.42
2024-05-09T11:32:48.255Z,18.93
2024-05-09T11:52:50.058Z,19.83
2024-05-09T12:12:51.802Z,18.70
2024-05-09T12:32:53.784Z,17.92
2024-05-09T12:52:55.666Z,18.38
2024-05-09T13:12:57.379Z,18.14
2024-05-09T13:32:59.254Z,17.76
2024-05-09T13:53:01.553Z,17.76
2024-05-09T14:13:03.584Z,17.67
2024-05-09T14:33:06.699Z,16.92
2024-05-09T14:53:11.446Z,17.52
2024-05-09T15:13:16.234Z,16.73
2024-05-09T15:33:18.779Z,16.99
2024-05-09T15:53:20.735Z,16.97
2024-05-09T16:13:22.883Z,16.85
2024-05-09T16:33:26.207Z,16.90
2024-05-09T16:53:28.077Z,16.61
2024-05-09T17:13:30.531Z,15.66
2024-05-09T17:33:32.463Z,14.68
2024-05-09T17:53:34.382Z,13.87
2024-05-09T18:13:36.087Z,12.99
2024-05-09T18:33:38.158Z,12.08
2024-05-09T18:53:40.883Z,11.28
2024-05-09T19:13:43.442Z,10.55
2024-05-09T19:33:45.252Z,10.01
2024-05-09T19:53:50.960Z,9.53
2024-05-09T20:13:52.748Z,9.15
2024-05-09T20:33:54.461Z,8.89
2024-05-09T20:53:56.401Z,8.57
2024-05-09T21:13:58.264Z,8.29
2024-05-09T21:34:00.131Z,8.05
2024-05-09T21:54:02.253Z,7.42
2024-05-09T22:14:03.939Z,7.46
2024-05-09T22:34:05.802Z,7.43
2024-05-09T22:54:07.837Z,7.31
2024-05-09T23:14:09.543Z,7.22
2024-05-09T23:34:12.245Z,7.14
2024-05-09T23:54:14.057Z,7.02
